Russell, Massachusetts
Current Conditions -  °F | °C
As of 1:53 AM on Saturday 01 Nov 2014 (Local Time) from KBAF Reporting Station
Overcast Overcast  
Wind Chill: 39°   Ceiling: 4900
Heat Index: 44°   Visibility: 10mi
Dew Point: 40°   Wind: 10mph
Humidity: 85%   Direction: 360°N
Pressure: 29.92"   Gusts: NA
Location:  42.19°N, 72.86°W
Report Text: KBAF 010553Z AUTO 36009KT 10SM OVC049 07/04 A2992 RMK AO2 SLP134 60005 T00670044 10089 20067 58017
Loading
Personal Weather Stations






























Interactive Weather Map
Tropical Storm Tracking
New forecast layout! Learn more

10-Day Weather Forecast

Advertisements
Track Severe Weather on mobile